Norris, Montana
Current Conditions -  °F | °C
As of 5:56 AM on Monday 20 Oct 2014 (Local Time) from KBZN Reporting Station
Clear Clear  
Wind Chill: 31°   Ceiling: Unl
Heat Index: 35°   Visibility: 10mi
Dew Point: 27°   Wind: 5mph
Humidity: 72%   Direction: 180°S
Pressure: 30.01"   Gusts: NA
Location:  45.57°N, 111.69°W
Report Text: KBZN 201156Z 18004KT 10SM CLR 02/M03 A3001 RMK AO2 SLP156 T00171028 10044 21011 53002
Loading
Personal Weather Stations






























Interactive Weather Map
Tropical Storm Tracking
New forecast layout! Learn more

10-Day Weather Forecast

Advertisements
Track Severe Weather on mobile